sensor_id;sensor_type;location;lat;lon;timestamp;temperature;humidity
29775;DHT22;16676;51.202;6.774;2023-03-24T00:03:10;19.30;68.50
29775;DHT22;16676;51.202;6.774;2023-03-24T00:07:12;19.30;68.60
29775;DHT22;16676;51.202;6.774;2023-03-24T00:11:15;19.30;68.60
29775;DHT22;16676;51.202;6.774;2023-03-24T00:15:19;19.30;68.60
29775;DHT22;16676;51.202;6.774;2023-03-24T00:19:24;19.30;68.70
29775;DHT22;16676;51.202;6.774;2023-03-24T00:23:28;19.30;68.80
29775;DHT22;16676;51.202;6.774;2023-03-24T00:27:32;19.30;68.90
29775;DHT22;16676;51.202;6.774;2023-03-24T00:31:36;19.30;68.90
29775;DHT22;16676;51.202;6.774;2023-03-24T00:35:40;19.30;69.00
29775;DHT22;16676;51.202;6.774;2023-03-24T00:39:44;19.30;69.00
29775;DHT22;16676;51.202;6.774;2023-03-24T00:43:47;19.20;69.00
29775;DHT22;16676;51.202;6.774;2023-03-24T00:47:49;19.20;69.00
29775;DHT22;16676;51.202;6.774;2023-03-24T00:51:55;19.20;69.10
29775;DHT22;16676;51.202;6.774;2023-03-24T00:55:57;19.20;69.10
29775;DHT22;16676;51.202;6.774;2023-03-24T01:00:01;19.20;69.10
29775;DHT22;16676;51.202;6.774;2023-03-24T01:04:10;19.20;69.10
29775;DHT22;16676;51.202;6.774;2023-03-24T01:08:15;19.20;69.20
29775;DHT22;16676;51.202;6.774;2023-03-24T01:12:19;19.20;69.10
29775;DHT22;16676;51.202;6.774;2023-03-24T01:16:21;19.20;69.30
29775;DHT22;16676;51.202;6.774;2023-03-24T01:20:25;19.20;69.10
29775;DHT22;16676;51.202;6.774;2023-03-24T01:24:28;19.20;69.20
29775;DHT22;16676;51.202;6.774;2023-03-24T01:28:30;19.20;70.00
29775;DHT22;16676;51.202;6.774;2023-03-24T01:32:32;19.20;69.10
29775;DHT22;16676;51.202;6.774;2023-03-24T01:36:34;19.20;69.20
29775;DHT22;16676;51.202;6.774;2023-03-24T01:40:40;19.20;69.20
29775;DHT22;16676;51.202;6.774;2023-03-24T01:44:42;19.20;69.20
29775;DHT22;16676;51.202;6.774;2023-03-24T01:48:48;19.20;69.20
29775;DHT22;16676;51.202;6.774;2023-03-24T01:52:51;19.10;69.10
29775;DHT22;16676;51.202;6.774;2023-03-24T01:56:57;19.20;69.40
29775;DHT22;16676;51.202;6.774;2023-03-24T02:01:01;19.20;69.40
29775;DHT22;16676;51.202;6.774;2023-03-24T02:05:06;19.10;69.30
29775;DHT22;16676;51.202;6.774;2023-03-24T02:09:10;19.20;69.40
29775;DHT22;16676;51.202;6.774;2023-03-24T02:13:14;19.10;69.50
29775;DHT22;16676;51.202;6.774;2023-03-24T02:17:34;19.10;69.20
29775;DHT22;16676;51.202;6.774;2023-03-24T02:26:30;19.10;69.40
29775;DHT22;16676;51.202;6.774;2023-03-24T02:30:58;19.10;69.50
29775;DHT22;16676;51.202;6.774;2023-03-24T02:40:04;19.10;69.50
29775;DHT22;16676;51.202;6.774;2023-03-24T02:44:19;19.10;69.60
29775;DHT22;16676;51.202;6.774;2023-03-24T02:48:26;19.10;69.50
29775;DHT22;16676;51.202;6.774;2023-03-24T02:52:34;19.10;69.40
29775;DHT22;16676;51.202;6.774;2023-03-24T02:56:43;19.10;69.60
29775;DHT22;16676;51.202;6.774;2023-03-24T03:00:50;19.10;69.50
29775;DHT22;16676;51.202;6.774;2023-03-24T03:04:55;19.10;69.60
29775;DHT22;16676;51.202;6.774;2023-03-24T03:09:01;19.10;69.60
29775;DHT22;16676;51.202;6.774;2023-03-24T03:13:15;19.10;69.80
29775;DHT22;16676;51.202;6.774;2023-03-24T03:17:18;19.10;69.60
29775;DHT22;16676;51.202;6.774;2023-03-24T03:21:24;19.10;69.60
29775;DHT22;16676;51.202;6.774;2023-03-24T03:25:31;19.10;69.70
29775;DHT22;16676;51.202;6.774;2023-03-24T03:29:38;19.00;69.80
29775;DHT22;16676;51.202;6.774;2023-03-24T03:33:45;19.10;70.00
29775;DHT22;16676;51.202;6.774;2023-03-24T03:37:52;19.10;69.80
29775;DHT22;16676;51.202;6.774;2023-03-24T03:41:58;19.10;69.60
29775;DHT22;16676;51.202;6.774;2023-03-24T03:46:03;19.10;69.80
29775;DHT22;16676;51.202;6.774;2023-03-24T03:50:07;19.00;69.60
29775;DHT22;16676;51.202;6.774;2023-03-24T03:54:11;19.00;69.80
29775;DHT22;16676;51.202;6.774;2023-03-24T03:58:14;19.00;69.80
29775;DHT22;16676;51.202;6.774;2023-03-24T04:02:33;19.00;69.60
29775;DHT22;16676;51.202;6.774;2023-03-24T04:06:43;19.00;69.60
29775;DHT22;16676;51.202;6.774;2023-03-24T04:15:35;19.10;70.00
29775;DHT22;16676;51.202;6.774;2023-03-24T04:19:52;19.00;69.80
29775;DHT22;16676;51.202;6.774;2023-03-24T04:24:10;19.00;69.70
29775;DHT22;16676;51.202;6.774;2023-03-24T04:28:18;19.00;69.80
29775;DHT22;16676;51.202;6.774;2023-03-24T04:32:29;19.10;69.90
29775;DHT22;16676;51.202;6.774;2023-03-24T04:36:36;19.00;69.90
29775;DHT22;16676;51.202;6.774;2023-03-24T04:40:43;19.00;69.90
29775;DHT22;16676;51.202;6.774;2023-03-24T04:44:49;19.00;70.00
29775;DHT22;16676;51.202;6.774;2023-03-24T04:48:51;19.00;69.90
29775;DHT22;16676;51.202;6.774;2023-03-24T04:52:55;19.00;69.80
29775;DHT22;16676;51.202;6.774;2023-03-24T04:56:59;19.00;69.70
29775;DHT22;16676;51.202;6.774;2023-03-24T05:01:01;19.00;69.90
29775;DHT22;16676;51.202;6.774;2023-03-24T05:05:06;19.00;69.80
29775;DHT22;16676;51.202;6.774;2023-03-24T05:09:09;19.00;69.90
29775;DHT22;16676;51.202;6.774;2023-03-24T05:13:12;19.00;69.80
29775;DHT22;16676;51.202;6.774;2023-03-24T05:17:14;19.00;69.90
29775;DHT22;16676;51.202;6.774;2023-03-24T05:21:16;19.00;69.80
29775;DHT22;16676;51.202;6.774;2023-03-24T05:25:21;19.00;70.10
29775;DHT22;16676;51.202;6.774;2023-03-24T05:29:23;19.00;70.20
29775;DHT22;16676;51.202;6.774;2023-03-24T05:33:25;19.00;70.20
29775;DHT22;16676;51.202;6.774;2023-03-24T05:37:27;19.00;70.30
29775;DHT22;16676;51.202;6.774;2023-03-24T05:41:31;19.00;70.30
29775;DHT22;16676;51.202;6.774;2023-03-24T05:45:33;19.00;70.20
29775;DHT22;16676;51.202;6.774;2023-03-24T05:49:35;19.00;70.60
29775;DHT22;16676;51.202;6.774;2023-03-24T05:53:37;19.00;70.40
29775;DHT22;16676;51.202;6.774;2023-03-24T05:57:40;19.00;71.40
29775;DHT22;16676;51.202;6.774;2023-03-24T06:01:43;19.00;71.30
29775;DHT22;16676;51.202;6.774;2023-03-24T06:05:45;19.00;72.50
29775;DHT22;16676;51.202;6.774;2023-03-24T06:09:47;19.00;73.00
29775;DHT22;16676;51.202;6.774;2023-03-24T06:13:51;19.00;73.10
29775;DHT22;16676;51.202;6.774;2023-03-24T06:17:58;19.00;73.10
29775;DHT22;16676;51.202;6.774;2023-03-24T06:22:00;19.00;73.40
29775;DHT22;16676;51.202;6.774;2023-03-24T06:26:07;19.00;73.60
29775;DHT22;16676;51.202;6.774;2023-03-24T06:30:12;19.00;73.80
29775;DHT22;16676;51.202;6.774;2023-03-24T06:34:15;19.00;74.00
29775;DHT22;16676;51.202;6.774;2023-03-24T06:38:17;19.00;74.00
29775;DHT22;16676;51.202;6.774;2023-03-24T06:42:19;19.00;70.90
29775;DHT22;16676;51.202;6.774;2023-03-24T06:46:22;18.60;66.10
29775;DHT22;16676;51.202;6.774;2023-03-24T06:50:24;18.30;65.90
29775;DHT22;16676;51.202;6.774;2023-03-24T06:54:27;17.80;65.30
29775;DHT22;16676;51.202;6.774;2023-03-24T06:58:29;17.80;64.70
29775;DHT22;16676;51.202;6.774;2023-03-24T07:02:32;17.60;63.60
29775;DHT22;16676;51.202;6.774;2023-03-24T07:06:35;17.40;62.70
29775;DHT22;16676;51.202;6.774;2023-03-24T07:10:37;17.00;62.90
29775;DHT22;16676;51.202;6.774;2023-03-24T07:14:39;16.80;63.70
29775;DHT22;16676;51.202;6.774;2023-03-24T07:18:42;16.60;64.70
29775;DHT22;16676;51.202;6.774;2023-03-24T07:22:44;16.50;65.80
29775;DHT22;16676;51.202;6.774;2023-03-24T07:26:46;16.90;65.50
29775;DHT22;16676;51.202;6.774;2023-03-24T07:30:48;18.10;62.60
29775;DHT22;16676;51.202;6.774;2023-03-24T07:34:51;20.10;56.70
29775;DHT22;16676;51.202;6.774;2023-03-24T07:38:53;21.90;52.90
29775;DHT22;16676;51.202;6.774;2023-03-24T07:42:59;23.40;49.80
29775;DHT22;16676;51.202;6.774;2023-03-24T07:47:01;24.40;47.70
29775;DHT22;16676;51.202;6.774;2023-03-24T07:51:04;24.90;46.70
29775;DHT22;16676;51.202;6.774;2023-03-24T07:55:08;25.40;46.70
29775;DHT22;16676;51.202;6.774;2023-03-24T07:59:11;26.00;44.80
29775;DHT22;16676;51.202;6.774;2023-03-24T08:03:13;25.80;45.30
29775;DHT22;16676;51.202;6.774;2023-03-24T08:07:18;24.60;48.60
29775;DHT22;16676;51.202;6.774;2023-03-24T08:11:19;23.70;51.00
29775;DHT22;16676;51.202;6.774;2023-03-24T08:15:22;23.30;52.80
29775;DHT22;16676;51.202;6.774;2023-03-24T08:19:24;23.20;53.60
29775;DHT22;16676;51.202;6.774;2023-03-24T08:23:27;23.20;53.80
29775;DHT22;16676;51.202;6.774;2023-03-24T08:27:29;23.20;54.60
29775;DHT22;16676;51.202;6.774;2023-03-24T08:31:31;23.20;54.50
29775;DHT22;16676;51.202;6.774;2023-03-24T08:35:34;23.20;54.70
29775;DHT22;16676;51.202;6.774;2023-03-24T08:39:39;23.20;55.10
29775;DHT22;16676;51.202;6.774;2023-03-24T08:43:41;23.20;55.40
29775;DHT22;16676;51.202;6.774;2023-03-24T08:47:43;23.30;55.40
29775;DHT22;16676;51.202;6.774;2023-03-24T08:51:45;23.50;55.30
29775;DHT22;16676;51.202;6.774;2023-03-24T08:55:48;23.60;55.20
29775;DHT22;16676;51.202;6.774;2023-03-24T08:59:51;23.80;55.40
29775;DHT22;16676;51.202;6.774;2023-03-24T09:03:53;23.80;55.10
29775;DHT22;16676;51.202;6.774;2023-03-24T09:07:55;23.80;55.50
29775;DHT22;16676;51.202;6.774;2023-03-24T09:11:59;23.80;55.50
29775;DHT22;16676;51.202;6.774;2023-03-24T09:16:02;23.80;55.90
29775;DHT22;16676;51.202;6.774;2023-03-24T09:20:05;23.70;55.90
29775;DHT22;16676;51.202;6.774;2023-03-24T09:24:11;23.70;56.30
29775;DHT22;16676;51.202;6.774;2023-03-24T09:28:14;23.80;56.30
29775;DHT22;16676;51.202;6.774;2023-03-24T09:32:16;23.90;56.20
29775;DHT22;16676;51.202;6.774;2023-03-24T09:36:18;23.90;56.30
29775;DHT22;16676;51.202;6.774;2023-03-24T09:40:23;23.90;56.60
29775;DHT22;16676;51.202;6.774;2023-03-24T09:44:32;23.80;56.70
29775;DHT22;16676;51.202;6.774;2023-03-24T09:48:37;23.70;57.10
29775;DHT22;16676;51.202;6.774;2023-03-24T09:52:43;23.70;57.10
29775;DHT22;16676;51.202;6.774;2023-03-24T09:56:46;23.50;57.30
29775;DHT22;16676;51.202;6.774;2023-03-24T10:00:50;23.50;57.60
29775;DHT22;16676;51.202;6.774;2023-03-24T10:04:51;23.50;57.80
29775;DHT22;16676;51.202;6.774;2023-03-24T10:09:04;23.40;58.10
29775;DHT22;16676;51.202;6.774;2023-03-24T10:13:17;23.30;58.40
29775;DHT22;16676;51.202;6.774;2023-03-24T10:17:28;23.10;58.60
29775;DHT22;16676;51.202;6.774;2023-03-24T10:21:36;23.10;58.90
29775;DHT22;16676;51.202;6.774;2023-03-24T10:25:45;23.10;56.90
29775;DHT22;16676;51.202;6.774;2023-03-24T10:29:52;23.10;56.30
29775;DHT22;16676;51.202;6.774;2023-03-24T10:33:56;23.10;55.40
29775;DHT22;16676;51.202;6.774;2023-03-24T10:38:00;23.10;55.70
29775;DHT22;16676;51.202;6.774;2023-03-24T10:42:03;23.10;55.10
29775;DHT22;16676;51.202;6.774;2023-03-24T10:46:07;22.90;55.00
29775;DHT22;16676;51.202;6.774;2023-03-24T10:50:11;22.90;55.00
29775;DHT22;16676;51.202;6.774;2023-03-24T10:54:16;22.80;55.10
29775;DHT22;16676;51.202;6.774;2023-03-24T10:58:24;22.80;55.10
29775;DHT22;16676;51.202;6.774;2023-03-24T11:02:29;22.70;55.70
29775;DHT22;16676;51.202;6.774;2023-03-24T11:06:33;22.50;56.00
29775;DHT22;16676;51.202;6.774;2023-03-24T11:10:35;22.40;55.90
29775;DHT22;16676;51.202;6.774;2023-03-24T11:14:43;22.40;55.60
29775;DHT22;16676;51.202;6.774;2023-03-24T11:18:53;22.40;55.40
29775;DHT22;16676;51.202;6.774;2023-03-24T11:22:59;22.40;55.20
29775;DHT22;16676;51.202;6.774;2023-03-24T11:27:02;22.50;54.80
29775;DHT22;16676;51.202;6.774;2023-03-24T11:31:07;22.50;54.70
29775;DHT22;16676;51.202;6.774;2023-03-24T11:35:13;22.50;54.60
29775;DHT22;16676;51.202;6.774;2023-03-24T11:39:22;22.50;53.90
29775;DHT22;16676;51.202;6.774;2023-03-24T11:43:24;22.50;54.20
29775;DHT22;16676;51.202;6.774;2023-03-24T11:47:30;22.40;54.30
29775;DHT22;16676;51.202;6.774;2023-03-24T11:51:35;22.40;54.30
29775;DHT22;16676;51.202;6.774;2023-03-24T11:55:43;22.50;54.10
29775;DHT22;16676;51.202;6.774;2023-03-24T11:59:52;22.40;54.10
29775;DHT22;16676;51.202;6.774;2023-03-24T12:04:17;22.40;54.30
29775;DHT22;16676;51.202;6.774;2023-03-24T12:08:32;22.40;53.70
29775;DHT22;16676;51.202;6.774;2023-03-24T12:12:45;22.40;53.00
29775;DHT22;16676;51.202;6.774;2023-03-24T12:16:57;22.40;52.50
29775;DHT22;16676;51.202;6.774;2023-03-24T12:21:13;22.30;52.70
29775;DHT22;16676;51.202;6.774;2023-03-24T12:25:31;22.40;52.30
29775;DHT22;16676;51.202;6.774;2023-03-24T12:29:55;22.30;51.90
29775;DHT22;16676;51.202;6.774;2023-03-24T12:34:06;22.40;52.10
29775;DHT22;16676;51.202;6.774;2023-03-24T12:38:27;22.20;53.00
29775;DHT22;16676;51.202;6.774;2023-03-24T12:42:38;22.20;52.80
29775;DHT22;16676;51.202;6.774;2023-03-24T12:46:49;22.30;53.20
29775;DHT22;16676;51.202;6.774;2023-03-24T12:51:04;22.30;53.70
29775;DHT22;16676;51.202;6.774;2023-03-24T12:55:17;22.40;53.90
29775;DHT22;16676;51.202;6.774;2023-03-24T12:59:25;22.50;54.40
29775;DHT22;16676;51.202;6.774;2023-03-24T13:03:34;22.50;54.70
29775;DHT22;16676;51.202;6.774;2023-03-24T13:07:38;22.50;55.00
29775;DHT22;16676;51.202;6.774;2023-03-24T13:11:49;22.50;55.10
29775;DHT22;16676;51.202;6.774;2023-03-24T13:15:56;22.50;55.40
29775;DHT22;16676;51.202;6.774;2023-03-24T13:20:02;22.50;55.70
29775;DHT22;16676;51.202;6.774;2023-03-24T13:24:07;22.50;56.20
29775;DHT22;16676;51.202;6.774;2023-03-24T13:28:12;22.50;56.10
29775;DHT22;16676;51.202;6.774;2023-03-24T13:32:27;22.60;56.40
29775;DHT22;16676;51.202;6.774;2023-03-24T13:36:41;22.60;56.50
29775;DHT22;16676;51.202;6.774;2023-03-24T13:40:48;22.60;56.40
29775;DHT22;16676;51.202;6.774;2023-03-24T13:44:52;22.60;56.70
29775;DHT22;16676;51.202;6.774;2023-03-24T13:48:55;22.60;56.90
29775;DHT22;16676;51.202;6.774;2023-03-24T13:53:04;22.70;56.80
29775;DHT22;16676;51.202;6.774;2023-03-24T13:57:11;22.60;57.20
29775;DHT22;16676;51.202;6.774;2023-03-24T14:01:30;22.60;57.40
29775;DHT22;16676;51.202;6.774;2023-03-24T14:05:40;22.60;57.60
29775;DHT22;16676;51.202;6.774;2023-03-24T14:09:57;22.60;57.70
29775;DHT22;16676;51.202;6.774;2023-03-24T14:14:04;22.70;57.90
29775;DHT22;16676;51.202;6.774;2023-03-24T14:18:15;22.80;57.90
29775;DHT22;16676;51.202;6.774;2023-03-24T14:22:40;22.80;57.70
29775;DHT22;16676;51.202;6.774;2023-03-24T14:26:45;22.90;57.80
29775;DHT22;16676;51.202;6.774;2023-03-24T14:31:00;22.90;57.80
29775;DHT22;16676;51.202;6.774;2023-03-24T14:35:03;22.80;58.00
29775;DHT22;16676;51.202;6.774;2023-03-24T14:39:09;22.80;58.30
29775;DHT22;16676;51.202;6.774;2023-03-24T14:43:21;22.70;58.50
29775;DHT22;16676;51.202;6.774;2023-03-24T14:47:24;22.60;58.80
29775;DHT22;16676;51.202;6.774;2023-03-24T14:51:37;22.60;59.10
29775;DHT22;16676;51.202;6.774;2023-03-24T14:55:41;22.60;59.30
29775;DHT22;16676;51.202;6.774;2023-03-24T14:59:49;22.60;59.40
29775;DHT22;16676;51.202;6.774;2023-03-24T15:03:57;22.60;59.40
29775;DHT22;16676;51.202;6.774;2023-03-24T15:08:07;22.70;59.30
29775;DHT22;16676;51.202;6.774;2023-03-24T15:12:11;22.70;59.30
29775;DHT22;16676;51.202;6.774;2023-03-24T15:16:20;22.70;59.40
29775;DHT22;16676;51.202;6.774;2023-03-24T15:20:24;22.70;59.30
29775;DHT22;16676;51.202;6.774;2023-03-24T15:24:30;22.70;59.50
29775;DHT22;16676;51.202;6.774;2023-03-24T15:28:32;22.70;59.60
29775;DHT22;16676;51.202;6.774;2023-03-24T15:32:35;22.60;59.80
29775;DHT22;16676;51.202;6.774;2023-03-24T15:36:40;22.60;59.90
29775;DHT22;16676;51.202;6.774;2023-03-24T15:40:52;22.60;60.00
29775;DHT22;16676;51.202;6.774;2023-03-24T15:45:07;22.60;60.10
29775;DHT22;16676;51.202;6.774;2023-03-24T15:49:19;22.50;60.00
29775;DHT22;16676;51.202;6.774;2023-03-24T15:53:25;22.50;59.80
29775;DHT22;16676;51.202;6.774;2023-03-24T15:57:27;22.50;60.00
29775;DHT22;16676;51.202;6.774;2023-03-24T16:01:30;22.40;60.40
29775;DHT22;16676;51.202;6.774;2023-03-24T16:05:45;22.40;60.60
29775;DHT22;16676;51.202;6.774;2023-03-24T16:09:55;22.40;60.60
29775;DHT22;16676;51.202;6.774;2023-03-24T16:13:59;22.40;60.50
29775;DHT22;16676;51.202;6.774;2023-03-24T16:18:02;22.30;60.50
29775;DHT22;16676;51.202;6.774;2023-03-24T16:22:09;22.30;60.20
29775;DHT22;16676;51.202;6.774;2023-03-24T16:26:12;22.20;60.50
29775;DHT22;16676;51.202;6.774;2023-03-24T16:30:18;22.10;60.20
29775;DHT22;16676;51.202;6.774;2023-03-24T16:34:21;22.10;59.90
29775;DHT22;16676;51.202;6.774;2023-03-24T16:38:25;22.10;59.90
29775;DHT22;16676;51.202;6.774;2023-03-24T16:42:27;22.00;60.60
29775;DHT22;16676;51.202;6.774;2023-03-24T16:46:30;22.00;59.80
29775;DHT22;16676;51.202;6.774;2023-03-24T16:50:35;22.00;60.20
29775;DHT22;16676;51.202;6.774;2023-03-24T16:54:38;22.00;60.20
29775;DHT22;16676;51.202;6.774;2023-03-24T16:58:40;21.90;60.10
29775;DHT22;16676;51.202;6.774;2023-03-24T17:02:42;21.90;60.20
29775;DHT22;16676;51.202;6.774;2023-03-24T17:06:49;21.90;60.10
29775;DHT22;16676;51.202;6.774;2023-03-24T17:10:54;21.90;60.30
29775;DHT22;16676;51.202;6.774;2023-03-24T17:14:56;21.90;60.40
29775;DHT22;16676;51.202;6.774;2023-03-24T17:18:57;21.90;60.30
29775;DHT22;16676;51.202;6.774;2023-03-24T17:23:00;21.80;60.30
29775;DHT22;16676;51.202;6.774;2023-03-24T17:27:14;21.80;60.60
29775;DHT22;16676;51.202;6.774;2023-03-24T17:31:16;21.70;60.50
29775;DHT22;16676;51.202;6.774;2023-03-24T17:35:19;21.70;60.60
29775;DHT22;16676;51.202;6.774;2023-03-24T17:39:21;21.70;60.60
29775;DHT22;16676;51.202;6.774;2023-03-24T17:43:25;21.60;60.70
29775;DHT22;16676;51.202;6.774;2023-03-24T17:47:28;21.60;60.80
29775;DHT22;16676;51.202;6.774;2023-03-24T17:56:09;21.40;60.90
29775;DHT22;16676;51.202;6.774;2023-03-24T18:00:13;21.50;60.50
29775;DHT22;16676;51.202;6.774;2023-03-24T18:04:15;21.30;59.30
29775;DHT22;16676;51.202;6.774;2023-03-24T18:08:18;21.10;60.20
29775;DHT22;16676;51.202;6.774;2023-03-24T18:12:22;20.90;59.60
29775;DHT22;16676;51.202;6.774;2023-03-24T18:16:26;20.80;58.90
29775;DHT22;16676;51.202;6.774;2023-03-24T18:20:30;20.70;58.90
29775;DHT22;16676;51.202;6.774;2023-03-24T18:24:32;20.60;59.60
29775;DHT22;16676;51.202;6.774;2023-03-24T18:28:37;20.60;59.40
29775;DHT22;16676;51.202;6.774;2023-03-24T18:32:39;20.60;58.70
29775;DHT22;16676;51.202;6.774;2023-03-24T18:36:42;20.50;58.30
29775;DHT22;16676;51.202;6.774;2023-03-24T18:40:45;20.40;59.30
29775;DHT22;16676;51.202;6.774;2023-03-24T18:44:49;20.40;59.00
29775;DHT22;16676;51.202;6.774;2023-03-24T18:48:51;20.40;58.30
29775;DHT22;16676;51.202;6.774;2023-03-24T18:52:53;20.20;59.20
29775;DHT22;16676;51.202;6.774;2023-03-24T18:56:55;20.30;58.50
29775;DHT22;16676;51.202;6.774;2023-03-24T19:01:03;20.30;58.70
29775;DHT22;16676;51.202;6.774;2023-03-24T19:05:06;20.20;57.90
29775;DHT22;16676;51.202;6.774;2023-03-24T19:09:10;20.20;58.50
29775;DHT22;16676;51.202;6.774;2023-03-24T19:13:14;20.20;58.40
29775;DHT22;16676;51.202;6.774;2023-03-24T19:17:17;20.10;58.80
29775;DHT22;16676;51.202;6.774;2023-03-24T19:21:19;20.10;58.70
29775;DHT22;16676;51.202;6.774;2023-03-24T19:25:23;20.10;59.50
29775;DHT22;16676;51.202;6.774;2023-03-24T19:29:25;20.10;58.80
29775;DHT22;16676;51.202;6.774;2023-03-24T19:33:28;20.10;57.70
29775;DHT22;16676;51.202;6.774;2023-03-24T19:37:30;19.90;58.10
29775;DHT22;16676;51.202;6.774;2023-03-24T19:41:32;19.90;58.60
29775;DHT22;16676;51.202;6.774;2023-03-24T19:45:34;19.90;58.10
29775;DHT22;16676;51.202;6.774;2023-03-24T19:49:38;19.80;58.00
29775;DHT22;16676;51.202;6.774;2023-03-24T19:53:40;19.90;58.50
29775;DHT22;16676;51.202;6.774;2023-03-24T19:57:41;19.90;58.70
29775;DHT22;16676;51.202;6.774;2023-03-24T20:01:43;19.90;58.30
29775;DHT22;16676;51.202;6.774;2023-03-24T20:05:47;19.90;57.70
29775;DHT22;16676;51.202;6.774;2023-03-24T20:09:49;19.90;58.30
29775;DHT22;16676;51.202;6.774;2023-03-24T20:13:51;19.90;57.80
29775;DHT22;16676;51.202;6.774;2023-03-24T20:17:53;19.80;58.00
29775;DHT22;16676;51.202;6.774;2023-03-24T20:21:56;19.80;58.30
29775;DHT22;16676;51.202;6.774;2023-03-24T20:25:59;19.90;58.20
29775;DHT22;16676;51.202;6.774;2023-03-24T20:30:01;19.90;58.20
29775;DHT22;16676;51.202;6.774;2023-03-24T20:34:03;19.80;58.30
29775;DHT22;16676;51.202;6.774;2023-03-24T20:38:06;19.80;58.40
29775;DHT22;16676;51.202;6.774;2023-03-24T20:42:08;19.70;57.60
29775;DHT22;16676;51.202;6.774;2023-03-24T20:46:11;19.70;57.80
29775;DHT22;16676;51.202;6.774;2023-03-24T20:50:17;19.60;58.10
29775;DHT22;16676;51.202;6.774;2023-03-24T20:54:20;19.60;58.00
29775;DHT22;16676;51.202;6.774;2023-03-24T20:58:22;19.60;57.90
29775;DHT22;16676;51.202;6.774;2023-03-24T21:02:24;19.60;57.60
29775;DHT22;16676;51.202;6.774;2023-03-24T21:06:26;19.50;58.30
29775;DHT22;16676;51.202;6.774;2023-03-24T21:10:29;19.40;57.70
29775;DHT22;16676;51.202;6.774;2023-03-24T21:14:31;19.30;58.10
29775;DHT22;16676;51.202;6.774;2023-03-24T21:18:34;19.40;58.30
29775;DHT22;16676;51.202;6.774;2023-03-24T21:22:36;19.30;57.40
29775;DHT22;16676;51.202;6.774;2023-03-24T21:26:48;19.30;57.80
29775;DHT22;16676;51.202;6.774;2023-03-24T21:30:50;19.30;57.10
29775;DHT22;16676;51.202;6.774;2023-03-24T21:34:52;19.20;57.10
29775;DHT22;16676;51.202;6.774;2023-03-24T21:38:55;19.30;58.10
29775;DHT22;16676;51.202;6.774;2023-03-24T21:42:58;19.50;61.30
29775;DHT22;16676;51.202;6.774;2023-03-24T21:47:04;19.80;63.10
29775;DHT22;16676;51.202;6.774;2023-03-24T21:51:07;20.10;63.50
29775;DHT22;16676;51.202;6.774;2023-03-24T21:55:10;20.30;63.30
29775;DHT22;16676;51.202;6.774;2023-03-24T21:59:15;20.50;63.70
29775;DHT22;16676;51.202;6.774;2023-03-24T22:03:17;20.10;54.90
29775;DHT22;16676;51.202;6.774;2023-03-24T22:07:21;20.10;56.20
29775;DHT22;16676;51.202;6.774;2023-03-24T22:11:23;20.30;57.00
29775;DHT22;16676;51.202;6.774;2023-03-24T22:15:27;20.40;57.00
29775;DHT22;16676;51.202;6.774;2023-03-24T22:19:30;20.50;57.30
29775;DHT22;16676;51.202;6.774;2023-03-24T22:23:33;20.60;57.60
29775;DHT22;16676;51.202;6.774;2023-03-24T22:27:37;20.60;57.80
29775;DHT22;16676;51.202;6.774;2023-03-24T22:31:40;20.60;58.00
29775;DHT22;16676;51.202;6.774;2023-03-24T22:35:44;20.60;58.30
29775;DHT22;16676;51.202;6.774;2023-03-24T22:39:46;20.70;58.40
29775;DHT22;16676;51.202;6.774;2023-03-24T22:43:48;20.70;58.50
29775;DHT22;16676;51.202;6.774;2023-03-24T22:47:51;20.70;58.70
29775;DHT22;16676;51.202;6.774;2023-03-24T22:51:53;20.70;58.90
29775;DHT22;16676;51.202;6.774;2023-03-24T22:55:55;20.70;58.90
29775;DHT22;16676;51.202;6.774;2023-03-24T22:59:57;20.70;59.00
29775;DHT22;16676;51.202;6.774;2023-03-24T23:04:02;20.70;59.20
29775;DHT22;16676;51.202;6.774;2023-03-24T23:08:05;20.70;59.20
29775;DHT22;16676;51.202;6.774;2023-03-24T23:12:07;20.70;59.30
29775;DHT22;16676;51.202;6.774;2023-03-24T23:16:09;20.70;59.50
29775;DHT22;16676;51.202;6.774;2023-03-24T23:20:12;20.70;59.60
29775;DHT22;16676;51.202;6.774;2023-03-24T23:24:15;20.70;59.70
29775;DHT22;16676;51.202;6.774;2023-03-24T23:28:17;20.70;59.70
29775;DHT22;16676;51.202;6.774;2023-03-24T23:32:19;20.70;59.90
29775;DHT22;16676;51.202;6.774;2023-03-24T23:36:23;20.60;59.90
29775;DHT22;16676;51.202;6.774;2023-03-24T23:40:27;20.60;60.00
29775;DHT22;16676;51.202;6.774;2023-03-24T23:44:29;20.60;60.10
29775;DHT22;16676;51.202;6.774;2023-03-24T23:48:32;20.60;60.10
29775;DHT22;16676;51.202;6.774;2023-03-24T23:52:35;20.60;60.30
29775;DHT22;16676;51.202;6.774;2023-03-24T23:56:37;20.60;60.30
